sensor_id;sensor_type;location;lat;lon;timestamp;P1;durP1;ratioP1;P2;durP2;ratioP2
55216;SDS011;41086;46.736;15.666;2022-12-18T00:01:17;332.60;;;50.25;;
55216;SDS011;41086;46.736;15.666;2022-12-18T00:03:46;430.98;;;63.40;;
55216;SDS011;41086;46.736;15.666;2022-12-18T00:06:13;86.65;;;18.33;;
55216;SDS011;41086;46.736;15.666;2022-12-18T00:08:41;286.13;;;44.17;;
55216;SDS011;41086;46.736;15.666;2022-12-18T00:11:11;340.75;;;46.15;;
55216;SDS011;41086;46.736;15.666;2022-12-18T00:13:39;316.27;;;41.90;;
55216;SDS011;41086;46.736;15.666;2022-12-18T00:16:08;197.70;;;26.35;;
55216;SDS011;41086;46.736;15.666;2022-12-18T00:18:38;209.30;;;34.55;;
55216;SDS011;41086;46.736;15.666;2022-12-18T00:21:07;161.93;;;39.88;;
55216;SDS011;41086;46.736;15.666;2022-12-18T00:23:35;244.02;;;44.20;;
55216;SDS011;41086;46.736;15.666;2022-12-18T00:26:07;263.13;;;46.97;;
55216;SDS011;41086;46.736;15.666;2022-12-18T00:28:36;205.32;;;42.97;;
55216;SDS011;41086;46.736;15.666;2022-12-18T00:31:03;201.70;;;41.42;;
55216;SDS011;41086;46.736;15.666;2022-12-18T00:33:33;252.73;;;42.65;;
55216;SDS011;41086;46.736;15.666;2022-12-18T00:36:04;279.48;;;42.30;;
55216;SDS011;41086;46.736;15.666;2022-12-18T00:38:33;210.52;;;39.05;;
55216;SDS011;41086;46.736;15.666;2022-12-18T00:41:00;242.57;;;44.17;;
55216;SDS011;41086;46.736;15.666;2022-12-18T00:43:27;261.50;;;53.25;;
55216;SDS011;41086;46.736;15.666;2022-12-18T00:45:54;177.23;;;42.83;;
55216;SDS011;41086;46.736;15.666;2022-12-18T00:50:48;247.75;;;43.65;;
55216;SDS011;41086;46.736;15.666;2022-12-18T00:53:16;374.50;;;59.70;;
55216;SDS011;41086;46.736;15.666;2022-12-18T00:55:43;180.15;;;37.95;;
55216;SDS011;41086;46.736;15.666;2022-12-18T00:58:12;209.10;;;43.10;;
55216;SDS011;41086;46.736;15.666;2022-12-18T01:00:40;357.70;;;55.53;;
55216;SDS011;41086;46.736;15.666;2022-12-18T01:03:10;256.13;;;44.63;;
55216;SDS011;41086;46.736;15.666;2022-12-18T01:05:42;216.43;;;39.85;;
55216;SDS011;41086;46.736;15.666;2022-12-18T01:08:10;350.00;;;48.88;;
55216;SDS011;41086;46.736;15.666;2022-12-18T01:10:39;145.55;;;27.13;;
55216;SDS011;41086;46.736;15.666;2022-12-18T01:13:07;265.80;;;43.15;;
55216;SDS011;41086;46.736;15.666;2022-12-18T01:15:34;304.08;;;45.63;;
55216;SDS011;41086;46.736;15.666;2022-12-18T01:18:01;440.70;;;63.85;;
55216;SDS011;41086;46.736;15.666;2022-12-18T01:20:28;207.27;;;42.63;;
55216;SDS011;41086;46.736;15.666;2022-12-18T01:22:54;185.68;;;39.33;;
55216;SDS011;41086;46.736;15.666;2022-12-18T01:25:21;317.75;;;51.15;;
55216;SDS011;41086;46.736;15.666;2022-12-18T01:27:49;209.68;;;43.28;;
55216;SDS011;41086;46.736;15.666;2022-12-18T01:30:16;266.65;;;46.40;;
55216;SDS011;41086;46.736;15.666;2022-12-18T01:32:44;272.77;;;40.92;;
55216;SDS011;41086;46.736;15.666;2022-12-18T01:35:11;282.63;;;44.90;;
55216;SDS011;41086;46.736;15.666;2022-12-18T01:37:37;486.13;;;63.45;;
55216;SDS011;41086;46.736;15.666;2022-12-18T01:40:04;218.32;;;44.90;;
55216;SDS011;41086;46.736;15.666;2022-12-18T01:42:32;234.52;;;45.78;;
55216;SDS011;41086;46.736;15.666;2022-12-18T01:47:36;128.38;;;37.85;;
55216;SDS011;41086;46.736;15.666;2022-12-18T01:52:40;299.35;;;41.08;;
55216;SDS011;41086;46.736;15.666;2022-12-18T01:55:16;232.98;;;42.17;;
55216;SDS011;41086;46.736;15.666;2022-12-18T01:57:45;175.75;;;36.15;;
55216;SDS011;41086;46.736;15.666;2022-12-18T02:00:15;152.20;;;34.95;;
55216;SDS011;41086;46.736;15.666;2022-12-18T02:02:44;100.90;;;27.48;;
55216;SDS011;41086;46.736;15.666;2022-12-18T02:05:14;212.70;;;38.63;;
55216;SDS011;41086;46.736;15.666;2022-12-18T02:07:59;184.77;;;34.85;;
55216;SDS011;41086;46.736;15.666;2022-12-18T02:10:33;98.93;;;17.52;;
55216;SDS011;41086;46.736;15.666;2022-12-18T02:13:27;123.53;;;29.08;;
55216;SDS011;41086;46.736;15.666;2022-12-18T02:18:40;192.00;;;36.85;;
55216;SDS011;41086;46.736;15.666;2022-12-18T02:27:02;108.43;;;31.17;;
55216;SDS011;41086;46.736;15.666;2022-12-18T02:29:53;92.50;;;31.33;;
55216;SDS011;41086;46.736;15.666;2022-12-18T02:32:27;102.82;;;33.00;;
55216;SDS011;41086;46.736;15.666;2022-12-18T02:35:01;74.18;;;30.13;;
55216;SDS011;41086;46.736;15.666;2022-12-18T02:37:31;86.72;;;33.45;;
55216;SDS011;41086;46.736;15.666;2022-12-18T02:40:04;111.50;;;37.17;;
55216;SDS011;41086;46.736;15.666;2022-12-18T02:42:34;97.72;;;34.08;;
55216;SDS011;41086;46.736;15.666;2022-12-18T02:45:04;226.30;;;47.75;;
55216;SDS011;41086;46.736;15.666;2022-12-18T02:47:33;246.85;;;51.90;;
55216;SDS011;41086;46.736;15.666;2022-12-18T02:58:45;109.72;;;34.88;;
55216;SDS011;41086;46.736;15.666;2022-12-18T03:01:43;294.00;;;50.70;;
55216;SDS011;41086;46.736;15.666;2022-12-18T03:04:26;86.03;;;27.73;;
55216;SDS011;41086;46.736;15.666;2022-12-18T03:07:02;105.65;;;32.00;;
55216;SDS011;41086;46.736;15.666;2022-12-18T03:09:33;104.45;;;33.17;;
55216;SDS011;41086;46.736;15.666;2022-12-18T03:12:10;246.25;;;48.38;;
55216;SDS011;41086;46.736;15.666;2022-12-18T03:17:32;249.23;;;45.03;;
55216;SDS011;41086;46.736;15.666;2022-12-18T03:20:02;139.80;;;35.28;;
55216;SDS011;41086;46.736;15.666;2022-12-18T03:22:34;171.70;;;38.85;;
55216;SDS011;41086;46.736;15.666;2022-12-18T03:25:04;160.32;;;35.70;;
55216;SDS011;41086;46.736;15.666;2022-12-18T03:27:40;300.17;;;50.03;;
55216;SDS011;41086;46.736;15.666;2022-12-18T03:30:16;265.52;;;48.65;;
55216;SDS011;41086;46.736;15.666;2022-12-18T03:32:52;179.88;;;39.60;;
55216;SDS011;41086;46.736;15.666;2022-12-18T03:35:29;194.10;;;42.95;;
55216;SDS011;41086;46.736;15.666;2022-12-18T03:37:59;114.25;;;36.03;;
55216;SDS011;41086;46.736;15.666;2022-12-18T03:40:31;163.02;;;40.40;;
55216;SDS011;41086;46.736;15.666;2022-12-18T03:43:12;110.43;;;35.63;;
55216;SDS011;41086;46.736;15.666;2022-12-18T03:46:17;105.22;;;35.38;;
55216;SDS011;41086;46.736;15.666;2022-12-18T03:49:01;191.70;;;45.88;;
55216;SDS011;41086;46.736;15.666;2022-12-18T03:51:39;149.88;;;38.10;;
55216;SDS011;41086;46.736;15.666;2022-12-18T03:54:11;222.85;;;47.72;;
55216;SDS011;41086;46.736;15.666;2022-12-18T03:56:48;165.18;;;36.67;;
55216;SDS011;41086;46.736;15.666;2022-12-18T03:59:20;210.48;;;46.70;;
55216;SDS011;41086;46.736;15.666;2022-12-18T04:01:49;227.60;;;46.42;;
55216;SDS011;41086;46.736;15.666;2022-12-18T04:04:20;184.18;;;40.40;;
55216;SDS011;41086;46.736;15.666;2022-12-18T04:06:48;259.83;;;49.03;;
55216;SDS011;41086;46.736;15.666;2022-12-18T04:09:18;171.27;;;38.95;;
55216;SDS011;41086;46.736;15.666;2022-12-18T04:11:47;127.47;;;36.30;;
55216;SDS011;41086;46.736;15.666;2022-12-18T04:14:15;134.15;;;40.42;;
55216;SDS011;41086;46.736;15.666;2022-12-18T04:16:44;149.40;;;38.08;;
55216;SDS011;41086;46.736;15.666;2022-12-18T04:19:14;180.20;;;40.35;;
55216;SDS011;41086;46.736;15.666;2022-12-18T04:21:43;149.25;;;37.35;;
55216;SDS011;41086;46.736;15.666;2022-12-18T04:24:12;117.65;;;36.75;;
55216;SDS011;41086;46.736;15.666;2022-12-18T04:26:45;102.35;;;34.45;;
55216;SDS011;41086;46.736;15.666;2022-12-18T04:29:17;146.80;;;40.15;;
55216;SDS011;41086;46.736;15.666;2022-12-18T04:31:43;139.93;;;34.72;;
55216;SDS011;41086;46.736;15.666;2022-12-18T04:34:10;136.05;;;32.55;;
55216;SDS011;41086;46.736;15.666;2022-12-18T04:36:44;113.53;;;27.42;;
55216;SDS011;41086;46.736;15.666;2022-12-18T04:39:12;157.05;;;33.97;;
55216;SDS011;41086;46.736;15.666;2022-12-18T04:41:40;153.38;;;36.80;;
55216;SDS011;41086;46.736;15.666;2022-12-18T04:44:08;135.73;;;34.00;;
55216;SDS011;41086;46.736;15.666;2022-12-18T04:46:34;197.05;;;44.20;;
55216;SDS011;41086;46.736;15.666;2022-12-18T04:49:01;178.20;;;40.00;;
55216;SDS011;41086;46.736;15.666;2022-12-18T04:51:28;169.73;;;36.80;;
55216;SDS011;41086;46.736;15.666;2022-12-18T04:53:55;137.73;;;36.38;;
55216;SDS011;41086;46.736;15.666;2022-12-18T04:56:21;100.15;;;29.25;;
55216;SDS011;41086;46.736;15.666;2022-12-18T04:58:48;103.63;;;27.20;;
55216;SDS011;41086;46.736;15.666;2022-12-18T05:01:16;82.68;;;22.25;;
55216;SDS011;41086;46.736;15.666;2022-12-18T05:03:44;87.40;;;26.83;;
55216;SDS011;41086;46.736;15.666;2022-12-18T05:06:11;69.07;;;24.77;;
55216;SDS011;41086;46.736;15.666;2022-12-18T05:08:38;110.93;;;28.00;;
55216;SDS011;41086;46.736;15.666;2022-12-18T05:11:07;60.17;;;20.63;;
55216;SDS011;41086;46.736;15.666;2022-12-18T05:13:36;68.63;;;24.15;;
55216;SDS011;41086;46.736;15.666;2022-12-18T05:16:05;67.72;;;25.30;;
55216;SDS011;41086;46.736;15.666;2022-12-18T05:18:32;58.08;;;23.52;;
55216;SDS011;41086;46.736;15.666;2022-12-18T05:20:59;52.25;;;17.95;;
55216;SDS011;41086;46.736;15.666;2022-12-18T05:23:27;78.88;;;26.15;;
55216;SDS011;41086;46.736;15.666;2022-12-18T05:25:58;66.60;;;23.42;;
55216;SDS011;41086;46.736;15.666;2022-12-18T05:28:28;73.43;;;29.13;;
55216;SDS011;41086;46.736;15.666;2022-12-18T05:30:56;84.88;;;29.55;;
55216;SDS011;41086;46.736;15.666;2022-12-18T05:33:26;87.05;;;29.77;;
55216;SDS011;41086;46.736;15.666;2022-12-18T05:35:55;107.20;;;33.28;;
55216;SDS011;41086;46.736;15.666;2022-12-18T05:38:25;101.20;;;35.35;;
55216;SDS011;41086;46.736;15.666;2022-12-18T05:40:53;144.35;;;36.85;;
55216;SDS011;41086;46.736;15.666;2022-12-18T05:45:48;120.70;;;35.30;;
55216;SDS011;41086;46.736;15.666;2022-12-18T05:48:15;108.03;;;34.53;;
55216;SDS011;41086;46.736;15.666;2022-12-18T05:50:44;193.55;;;45.30;;
55216;SDS011;41086;46.736;15.666;2022-12-18T05:53:12;102.38;;;30.85;;
55216;SDS011;41086;46.736;15.666;2022-12-18T05:55:40;127.28;;;38.05;;
55216;SDS011;41086;46.736;15.666;2022-12-18T05:58:09;73.97;;;27.02;;
55216;SDS011;41086;46.736;15.666;2022-12-18T06:00:37;87.75;;;32.40;;
55216;SDS011;41086;46.736;15.666;2022-12-18T06:03:06;96.97;;;29.00;;
55216;SDS011;41086;46.736;15.666;2022-12-18T06:05:38;78.88;;;29.48;;
55216;SDS011;41086;46.736;15.666;2022-12-18T06:08:07;54.58;;;23.30;;
55216;SDS011;41086;46.736;15.666;2022-12-18T06:13:01;80.25;;;26.50;;
55216;SDS011;41086;46.736;15.666;2022-12-18T06:15:27;89.05;;;33.03;;
55216;SDS011;41086;46.736;15.666;2022-12-18T06:17:54;75.88;;;27.80;;
55216;SDS011;41086;46.736;15.666;2022-12-18T06:20:21;75.28;;;28.75;;
55216;SDS011;41086;46.736;15.666;2022-12-18T06:22:48;66.75;;;26.52;;
55216;SDS011;41086;46.736;15.666;2022-12-18T06:27:42;74.30;;;29.13;;
55216;SDS011;41086;46.736;15.666;2022-12-18T06:30:09;77.78;;;28.42;;
55216;SDS011;41086;46.736;15.666;2022-12-18T06:32:37;63.08;;;26.15;;
55216;SDS011;41086;46.736;15.666;2022-12-18T06:35:04;68.82;;;25.15;;
55216;SDS011;41086;46.736;15.666;2022-12-18T06:39:58;50.97;;;20.52;;
55216;SDS011;41086;46.736;15.666;2022-12-18T06:42:25;65.28;;;23.45;;
55216;SDS011;41086;46.736;15.666;2022-12-18T06:44:52;64.95;;;24.60;;
55216;SDS011;41086;46.736;15.666;2022-12-18T06:47:18;54.85;;;21.58;;
55216;SDS011;41086;46.736;15.666;2022-12-18T06:49:45;55.65;;;23.55;;
55216;SDS011;41086;46.736;15.666;2022-12-18T06:52:12;47.60;;;19.02;;
55216;SDS011;41086;46.736;15.666;2022-12-18T06:54:38;53.60;;;22.92;;
55216;SDS011;41086;46.736;15.666;2022-12-18T06:57:05;60.15;;;24.38;;
55216;SDS011;41086;46.736;15.666;2022-12-18T06:59:32;62.92;;;24.70;;
55216;SDS011;41086;46.736;15.666;2022-12-18T07:01:59;50.50;;;19.77;;
55216;SDS011;41086;46.736;15.666;2022-12-18T07:06:56;50.30;;;19.98;;
55216;SDS011;41086;46.736;15.666;2022-12-18T07:09:23;40.03;;;18.33;;
55216;SDS011;41086;46.736;15.666;2022-12-18T07:11:52;44.63;;;17.98;;
55216;SDS011;41086;46.736;15.666;2022-12-18T07:14:19;57.80;;;19.73;;
55216;SDS011;41086;46.736;15.666;2022-12-18T07:16:46;49.70;;;19.70;;
55216;SDS011;41086;46.736;15.666;2022-12-18T07:19:13;45.50;;;19.02;;
55216;SDS011;41086;46.736;15.666;2022-12-18T07:24:07;59.97;;;24.83;;
55216;SDS011;41086;46.736;15.666;2022-12-18T07:26:34;54.75;;;23.45;;
55216;SDS011;41086;46.736;15.666;2022-12-18T07:29:00;57.75;;;22.55;;
55216;SDS011;41086;46.736;15.666;2022-12-18T07:31:28;56.10;;;24.65;;
55216;SDS011;41086;46.736;15.666;2022-12-18T07:33:55;72.07;;;27.92;;
55216;SDS011;41086;46.736;15.666;2022-12-18T07:36:21;63.08;;;24.52;;
55216;SDS011;41086;46.736;15.666;2022-12-18T07:38:49;65.38;;;23.20;;
55216;SDS011;41086;46.736;15.666;2022-12-18T07:41:16;52.15;;;20.40;;
55216;SDS011;41086;46.736;15.666;2022-12-18T07:43:45;23.20;;;10.82;;
55216;SDS011;41086;46.736;15.666;2022-12-18T07:46:12;47.70;;;19.98;;
55216;SDS011;41086;46.736;15.666;2022-12-18T07:48:41;47.40;;;19.92;;
55216;SDS011;41086;46.736;15.666;2022-12-18T07:51:10;43.28;;;17.48;;
55216;SDS011;41086;46.736;15.666;2022-12-18T07:53:37;20.33;;;10.02;;
55216;SDS011;41086;46.736;15.666;2022-12-18T07:56:07;55.92;;;21.55;;
55216;SDS011;41086;46.736;15.666;2022-12-18T07:58:55;24.58;;;11.65;;
55216;SDS011;41086;46.736;15.666;2022-12-18T08:01:22;40.83;;;17.00;;
55216;SDS011;41086;46.736;15.666;2022-12-18T08:03:50;44.97;;;18.90;;
55216;SDS011;41086;46.736;15.666;2022-12-18T08:06:17;43.97;;;19.50;;
55216;SDS011;41086;46.736;15.666;2022-12-18T08:08:50;36.97;;;16.30;;
55216;SDS011;41086;46.736;15.666;2022-12-18T08:11:20;47.05;;;17.58;;
55216;SDS011;41086;46.736;15.666;2022-12-18T08:13:47;39.38;;;16.63;;
55216;SDS011;41086;46.736;15.666;2022-12-18T08:16:14;42.80;;;19.60;;
55216;SDS011;41086;46.736;15.666;2022-12-18T08:18:41;45.08;;;18.70;;
55216;SDS011;41086;46.736;15.666;2022-12-18T08:21:12;46.38;;;19.80;;
55216;SDS011;41086;46.736;15.666;2022-12-18T08:23:43;32.10;;;14.80;;
55216;SDS011;41086;46.736;15.666;2022-12-18T08:26:11;37.17;;;16.55;;
55216;SDS011;41086;46.736;15.666;2022-12-18T08:28:38;26.98;;;12.40;;
55216;SDS011;41086;46.736;15.666;2022-12-18T08:31:06;24.90;;;10.13;;
55216;SDS011;41086;46.736;15.666;2022-12-18T08:33:34;36.92;;;16.70;;
55216;SDS011;41086;46.736;15.666;2022-12-18T08:36:03;50.72;;;21.48;;
55216;SDS011;41086;46.736;15.666;2022-12-18T08:38:31;43.05;;;16.88;;
55216;SDS011;41086;46.736;15.666;2022-12-18T08:41:01;33.22;;;13.23;;
55216;SDS011;41086;46.736;15.666;2022-12-18T08:43:30;29.42;;;12.93;;
55216;SDS011;41086;46.736;15.666;2022-12-18T08:46:16;44.92;;;18.63;;
55216;SDS011;41086;46.736;15.666;2022-12-18T08:48:44;36.42;;;15.60;;
55216;SDS011;41086;46.736;15.666;2022-12-18T08:53:38;34.22;;;16.65;;
55216;SDS011;41086;46.736;15.666;2022-12-18T08:56:06;37.22;;;15.70;;
55216;SDS011;41086;46.736;15.666;2022-12-18T08:58:34;41.92;;;18.67;;
55216;SDS011;41086;46.736;15.666;2022-12-18T09:01:05;34.15;;;14.95;;
55216;SDS011;41086;46.736;15.666;2022-12-18T09:03:35;44.35;;;19.90;;
55216;SDS011;41086;46.736;15.666;2022-12-18T09:06:04;48.97;;;21.17;;
55216;SDS011;41086;46.736;15.666;2022-12-18T09:08:31;38.08;;;17.92;;
55216;SDS011;41086;46.736;15.666;2022-12-18T09:11:01;38.15;;;16.00;;
55216;SDS011;41086;46.736;15.666;2022-12-18T09:13:28;18.90;;;9.88;;
55216;SDS011;41086;46.736;15.666;2022-12-18T09:15:55;36.53;;;16.90;;
55216;SDS011;41086;46.736;15.666;2022-12-18T09:18:22;21.50;;;11.27;;
55216;SDS011;41086;46.736;15.666;2022-12-18T09:20:50;33.47;;;14.90;;
55216;SDS011;41086;46.736;15.666;2022-12-18T09:23:19;34.13;;;15.77;;
55216;SDS011;41086;46.736;15.666;2022-12-18T09:25:47;36.15;;;17.23;;
55216;SDS011;41086;46.736;15.666;2022-12-18T09:28:16;32.80;;;16.52;;
55216;SDS011;41086;46.736;15.666;2022-12-18T09:30:48;22.60;;;10.90;;
55216;SDS011;41086;46.736;15.666;2022-12-18T09:33:16;35.78;;;15.63;;
55216;SDS011;41086;46.736;15.666;2022-12-18T09:35:44;29.70;;;12.45;;
55216;SDS011;41086;46.736;15.666;2022-12-18T09:38:16;34.05;;;15.93;;
55216;SDS011;41086;46.736;15.666;2022-12-18T09:40:53;37.03;;;17.27;;
55216;SDS011;41086;46.736;15.666;2022-12-18T09:43:42;50.35;;;21.58;;
55216;SDS011;41086;46.736;15.666;2022-12-18T09:46:17;40.70;;;19.83;;
55216;SDS011;41086;46.736;15.666;2022-12-18T09:48:52;41.63;;;15.73;;
55216;SDS011;41086;46.736;15.666;2022-12-18T09:51:30;33.30;;;14.18;;
55216;SDS011;41086;46.736;15.666;2022-12-18T09:54:06;28.30;;;13.68;;
55216;SDS011;41086;46.736;15.666;2022-12-18T09:56:42;39.05;;;16.38;;
55216;SDS011;41086;46.736;15.666;2022-12-18T09:59:15;18.45;;;9.40;;
55216;SDS011;41086;46.736;15.666;2022-12-18T10:01:47;28.45;;;13.55;;
55216;SDS011;41086;46.736;15.666;2022-12-18T10:04:14;31.52;;;14.32;;
55216;SDS011;41086;46.736;15.666;2022-12-18T10:07:42;34.83;;;16.63;;
55216;SDS011;41086;46.736;15.666;2022-12-18T10:09:56;31.27;;;15.25;;
55216;SDS011;41086;46.736;15.666;2022-12-18T10:18:29;29.58;;;15.18;;
55216;SDS011;41086;46.736;15.666;2022-12-18T10:21:21;25.05;;;11.98;;
55216;SDS011;41086;46.736;15.666;2022-12-18T10:23:58;25.63;;;12.60;;
55216;SDS011;41086;46.736;15.666;2022-12-18T10:26:29;24.10;;;12.38;;
55216;SDS011;41086;46.736;15.666;2022-12-18T10:28:58;26.58;;;12.38;;
55216;SDS011;41086;46.736;15.666;2022-12-18T10:31:31;28.38;;;12.52;;
55216;SDS011;41086;46.736;15.666;2022-12-18T10:33:57;31.45;;;13.98;;
55216;SDS011;41086;46.736;15.666;2022-12-18T10:36:24;28.38;;;12.98;;
55216;SDS011;41086;46.736;15.666;2022-12-18T10:38:51;29.20;;;15.70;;
55216;SDS011;41086;46.736;15.666;2022-12-18T10:43:47;26.50;;;12.35;;
55216;SDS011;41086;46.736;15.666;2022-12-18T10:51:31;24.80;;;13.55;;
55216;SDS011;41086;46.736;15.666;2022-12-18T10:54:03;26.27;;;12.77;;
55216;SDS011;41086;46.736;15.666;2022-12-18T10:56:34;36.17;;;16.08;;
55216;SDS011;41086;46.736;15.666;2022-12-18T10:59:06;34.95;;;16.85;;
55216;SDS011;41086;46.736;15.666;2022-12-18T11:04:35;31.02;;;15.70;;
55216;SDS011;41086;46.736;15.666;2022-12-18T11:07:15;36.33;;;17.33;;
55216;SDS011;41086;46.736;15.666;2022-12-18T11:09:42;36.65;;;16.13;;
55216;SDS011;41086;46.736;15.666;2022-12-18T11:12:18;37.22;;;17.77;;
55216;SDS011;41086;46.736;15.666;2022-12-18T11:14:52;38.78;;;17.27;;
55216;SDS011;41086;46.736;15.666;2022-12-18T11:17:31;33.25;;;16.23;;
55216;SDS011;41086;46.736;15.666;2022-12-18T11:20:02;37.42;;;17.55;;
55216;SDS011;41086;46.736;15.666;2022-12-18T11:22:33;30.02;;;14.52;;
55216;SDS011;41086;46.736;15.666;2022-12-18T11:33:46;39.60;;;16.48;;
55216;SDS011;41086;46.736;15.666;2022-12-18T11:36:54;39.53;;;17.67;;
55216;SDS011;41086;46.736;15.666;2022-12-18T11:39:31;32.90;;;15.98;;
55216;SDS011;41086;46.736;15.666;2022-12-18T11:42:12;31.10;;;15.43;;
55216;SDS011;41086;46.736;15.666;2022-12-18T11:48:01;24.38;;;12.55;;
55216;SDS011;41086;46.736;15.666;2022-12-18T11:51:19;37.63;;;16.65;;
55216;SDS011;41086;46.736;15.666;2022-12-18T11:53:52;40.80;;;16.58;;
55216;SDS011;41086;46.736;15.666;2022-12-18T11:56:39;40.35;;;18.83;;
55216;SDS011;41086;46.736;15.666;2022-12-18T12:02:42;47.22;;;21.77;;
55216;SDS011;41086;46.736;15.666;2022-12-18T12:08:04;42.13;;;19.35;;
55216;SDS011;41086;46.736;15.666;2022-12-18T12:13:44;46.75;;;21.13;;
55216;SDS011;41086;46.736;15.666;2022-12-18T12:19:04;43.58;;;19.48;;
55216;SDS011;41086;46.736;15.666;2022-12-18T12:21:48;30.13;;;16.10;;
55216;SDS011;41086;46.736;15.666;2022-12-18T12:25:33;36.65;;;16.30;;
55216;SDS011;41086;46.736;15.666;2022-12-18T12:27:31;27.83;;;14.30;;
55216;SDS011;41086;46.736;15.666;2022-12-18T12:30:11;38.75;;;17.48;;
55216;SDS011;41086;46.736;15.666;2022-12-18T12:35:42;34.97;;;16.63;;
55216;SDS011;41086;46.736;15.666;2022-12-18T12:38:17;37.45;;;16.23;;
55216;SDS011;41086;46.736;15.666;2022-12-18T12:40:54;40.95;;;16.13;;
55216;SDS011;41086;46.736;15.666;2022-12-18T12:43:42;28.33;;;15.63;;
55216;SDS011;41086;46.736;15.666;2022-12-18T12:46:34;31.45;;;15.48;;
55216;SDS011;41086;46.736;15.666;2022-12-18T12:49:18;36.72;;;17.88;;
55216;SDS011;41086;46.736;15.666;2022-12-18T12:52:07;35.75;;;16.67;;
55216;SDS011;41086;46.736;15.666;2022-12-18T12:54:40;32.30;;;14.65;;
55216;SDS011;41086;46.736;15.666;2022-12-18T12:57:21;38.10;;;15.25;;
55216;SDS011;41086;46.736;15.666;2022-12-18T13:00:13;32.63;;;15.70;;
55216;SDS011;41086;46.736;15.666;2022-12-18T13:03:02;32.22;;;16.30;;
55216;SDS011;41086;46.736;15.666;2022-12-18T13:05:40;31.92;;;15.48;;
55216;SDS011;41086;46.736;15.666;2022-12-18T13:11:00;37.45;;;15.65;;
55216;SDS011;41086;46.736;15.666;2022-12-18T13:13:50;42.03;;;18.73;;
55216;SDS011;41086;46.736;15.666;2022-12-18T13:16:24;35.42;;;14.30;;
55216;SDS011;41086;46.736;15.666;2022-12-18T13:18:54;36.53;;;17.67;;
55216;SDS011;41086;46.736;15.666;2022-12-18T13:21:29;49.20;;;21.02;;
55216;SDS011;41086;46.736;15.666;2022-12-18T13:24:23;44.72;;;21.27;;
55216;SDS011;41086;46.736;15.666;2022-12-18T13:26:50;48.08;;;20.20;;
55216;SDS011;41086;46.736;15.666;2022-12-18T13:32:23;50.83;;;22.67;;
55216;SDS011;41086;46.736;15.666;2022-12-18T13:37:52;53.30;;;24.50;;
55216;SDS011;41086;46.736;15.666;2022-12-18T13:48:34;55.13;;;24.30;;
55216;SDS011;41086;46.736;15.666;2022-12-18T13:51:09;52.97;;;25.70;;
55216;SDS011;41086;46.736;15.666;2022-12-18T13:53:44;55.88;;;24.83;;
55216;SDS011;41086;46.736;15.666;2022-12-18T13:56:16;51.60;;;23.15;;
55216;SDS011;41086;46.736;15.666;2022-12-18T14:07:36;51.97;;;23.98;;
55216;SDS011;41086;46.736;15.666;2022-12-18T14:10:11;55.72;;;24.75;;
55216;SDS011;41086;46.736;15.666;2022-12-18T14:13:08;58.85;;;26.50;;
55216;SDS011;41086;46.736;15.666;2022-12-18T14:15:41;53.70;;;25.63;;
55216;SDS011;41086;46.736;15.666;2022-12-18T14:20:43;60.75;;;26.75;;
55216;SDS011;41086;46.736;15.666;2022-12-18T14:23:37;58.22;;;25.98;;
55216;SDS011;41086;46.736;15.666;2022-12-18T14:29:25;54.33;;;25.33;;
55216;SDS011;41086;46.736;15.666;2022-12-18T14:32:15;52.70;;;24.85;;
55216;SDS011;41086;46.736;15.666;2022-12-18T14:34:45;52.67;;;25.92;;
55216;SDS011;41086;46.736;15.666;2022-12-18T14:37:21;51.50;;;23.55;;
55216;SDS011;41086;46.736;15.666;2022-12-18T14:39:53;53.05;;;24.98;;
55216;SDS011;41086;46.736;15.666;2022-12-18T14:42:26;55.57;;;23.90;;
55216;SDS011;41086;46.736;15.666;2022-12-18T14:48:20;57.13;;;25.85;;
55216;SDS011;41086;46.736;15.666;2022-12-18T14:50:59;52.20;;;23.70;;
55216;SDS011;41086;46.736;15.666;2022-12-18T14:53:32;54.35;;;23.90;;
55216;SDS011;41086;46.736;15.666;2022-12-18T14:56:24;61.25;;;28.58;;
55216;SDS011;41086;46.736;15.666;2022-12-18T14:58:55;53.25;;;24.73;;
55216;SDS011;41086;46.736;15.666;2022-12-18T15:04:05;62.85;;;28.08;;
55216;SDS011;41086;46.736;15.666;2022-12-18T15:06:48;57.70;;;25.08;;
55216;SDS011;41086;46.736;15.666;2022-12-18T15:12:34;60.25;;;25.38;;
55216;SDS011;41086;46.736;15.666;2022-12-18T15:15:03;57.30;;;27.65;;
55216;SDS011;41086;46.736;15.666;2022-12-18T15:17:31;60.58;;;28.50;;
55216;SDS011;41086;46.736;15.666;2022-12-18T15:20:02;55.65;;;25.48;;
55216;SDS011;41086;46.736;15.666;2022-12-18T15:22:36;57.28;;;25.58;;
55216;SDS011;41086;46.736;15.666;2022-12-18T15:25:03;54.92;;;25.02;;
55216;SDS011;41086;46.736;15.666;2022-12-18T15:27:52;57.58;;;28.05;;
55216;SDS011;41086;46.736;15.666;2022-12-18T15:30:23;59.90;;;27.73;;
55216;SDS011;41086;46.736;15.666;2022-12-18T15:32:51;60.33;;;27.88;;
55216;SDS011;41086;46.736;15.666;2022-12-18T15:35:32;60.70;;;26.73;;
55216;SDS011;41086;46.736;15.666;2022-12-18T15:37:59;62.42;;;28.52;;
55216;SDS011;41086;46.736;15.666;2022-12-18T15:40:26;69.53;;;27.17;;
55216;SDS011;41086;46.736;15.666;2022-12-18T15:42:53;65.47;;;28.75;;
55216;SDS011;41086;46.736;15.666;2022-12-18T15:45:40;57.40;;;26.58;;
55216;SDS011;41086;46.736;15.666;2022-12-18T15:48:15;60.03;;;28.27;;
55216;SDS011;41086;46.736;15.666;2022-12-18T15:50:49;61.55;;;27.02;;
55216;SDS011;41086;46.736;15.666;2022-12-18T15:53:17;58.97;;;26.10;;
55216;SDS011;41086;46.736;15.666;2022-12-18T15:55:44;62.28;;;27.55;;
55216;SDS011;41086;46.736;15.666;2022-12-18T15:58:30;61.10;;;27.60;;
55216;SDS011;41086;46.736;15.666;2022-12-18T16:00:56;61.40;;;28.27;;
55216;SDS011;41086;46.736;15.666;2022-12-18T16:03:25;68.47;;;28.73;;
55216;SDS011;41086;46.736;15.666;2022-12-18T16:05:53;62.25;;;27.70;;
55216;SDS011;41086;46.736;15.666;2022-12-18T16:08:21;61.15;;;27.20;;
55216;SDS011;41086;46.736;15.666;2022-12-18T16:10:49;57.97;;;26.85;;
55216;SDS011;41086;46.736;15.666;2022-12-18T16:13:15;55.00;;;25.20;;
55216;SDS011;41086;46.736;15.666;2022-12-18T16:15:45;65.07;;;27.73;;
55216;SDS011;41086;46.736;15.666;2022-12-18T16:18:12;60.22;;;26.02;;
55216;SDS011;41086;46.736;15.666;2022-12-18T16:20:39;68.22;;;28.55;;
55216;SDS011;41086;46.736;15.666;2022-12-18T16:25:33;63.90;;;25.70;;
55216;SDS011;41086;46.736;15.666;2022-12-18T16:28:00;62.15;;;26.85;;
55216;SDS011;41086;46.736;15.666;2022-12-18T16:30:28;76.10;;;29.67;;
55216;SDS011;41086;46.736;15.666;2022-12-18T16:33:03;60.38;;;27.50;;
55216;SDS011;41086;46.736;15.666;2022-12-18T16:35:33;61.20;;;27.42;;
55216;SDS011;41086;46.736;15.666;2022-12-18T16:38:00;66.63;;;29.38;;
55216;SDS011;41086;46.736;15.666;2022-12-18T16:40:27;54.70;;;26.70;;
55216;SDS011;41086;46.736;15.666;2022-12-18T16:42:54;55.47;;;24.63;;
55216;SDS011;41086;46.736;15.666;2022-12-18T16:45:22;52.13;;;23.65;;